Time;durP1;ratioP1;P1;durP2;ratioP2;P2;SDS_P1;SDS_P2;PMS_P1;PMS_P2;Temp;Humidity;BMP_temperature;BMP_pressure;BME280_temperature;BME280_humidity;BME280_pressure;Samples;Min_cycle;Max_cycle;Signal;HPM_P1;HPM_P2
2024/01/24 00:01:52;;;;;;;3.93;0.90;;;8.40;44.50;;;;;;5068340;27;46783;-78
2024/01/24 00:04:17;;;;;;;2.80;0.90;;;8.40;44.40;;;;;;5047554;28;48356;-78
2024/01/24 00:06:43;;;;;;;1.30;0.70;;;8.40;44.20;;;;;;5065588;28;46344;-77
2024/01/24 00:09:09;;;;;;;3.27;0.60;;;8.50;44.10;;;;;;5050228;28;46598;-77
2024/01/24 00:11:35;;;;;;;1.40;0.70;;;8.50;43.80;;;;;;5068563;28;46529;-78
2024/01/24 00:14:01;;;;;;;1.80;0.90;;;8.60;43.50;;;;;;5066741;28;46409;-77
2024/01/24 00:16:27;;;;;;;4.20;1.03;;;8.60;43.20;;;;;;5067561;28;46533;-79
2024/01/24 00:18:53;;;;;;;1.93;0.80;;;8.60;42.70;;;;;;5065506;27;46495;-78
2024/01/24 00:21:18;;;;;;;2.13;0.70;;;8.70;42.70;;;;;;5067712;28;46400;-77
2024/01/24 00:23:44;;;;;;;1.77;0.90;;;8.70;43.70;;;;;;5050944;28;48150;-77
2024/01/24 00:26:09;;;;;;;1.67;0.80;;;8.80;42.20;;;;;;5065418;28;46732;-78
2024/01/24 00:28:35;;;;;;;1.43;0.80;;;8.80;41.90;;;;;;5066582;28;46443;-79
2024/01/24 00:31:00;;;;;;;1.87;0.70;;;8.80;41.70;;;;;;5066727;28;46658;-77
2024/01/24 00:33:29;;;;;;;2.17;0.90;;;8.90;41.30;;;;;;5066691;28;46434;-77
2024/01/24 00:35:54;;;;;;;2.13;0.80;;;8.90;40.70;;;;;;5067300;28;46825;-77
2024/01/24 00:38:20;;;;;;;2.00;0.73;;;8.90;40.50;;;;;;5063753;27;46464;-76
2024/01/24 00:40:46;;;;;;;1.60;0.70;;;8.90;40.70;;;;;;5066984;27;47757;-78
2024/01/24 00:43:11;;;;;;;2.10;0.93;;;8.90;40.60;;;;;;5064916;27;46836;-79
2024/01/24 00:45:37;;;;;;;1.40;0.70;;;8.90;40.30;;;;;;5046994;28;47304;-78
2024/01/24 00:48:03;;;;;;;1.40;0.70;;;9.00;40.10;;;;;;5066791;27;46549;-78
2024/01/24 00:50:28;;;;;;;1.67;0.70;;;9.00;40.10;;;;;;5047382;28;46365;-78
2024/01/24 00:52:55;;;;;;;3.80;0.90;;;9.00;39.70;;;;;;5062769;27;46509;-78
2024/01/24 00:55:21;;;;;;;1.90;0.90;;;9.10;39.00;;;;;;5065303;28;46585;-78
2024/01/24 00:57:47;;;;;;;1.53;0.73;;;9.10;39.30;;;;;;5066876;28;46490;-78
2024/01/24 01:00:13;;;;;;;1.47;0.70;;;9.10;39.00;;;;;;5057419;28;46777;-78
2024/01/24 01:02:39;;;;;;;2.17;0.77;;;9.10;38.60;;;;;;5056704;28;48720;-78
2024/01/24 01:05:05;;;;;;;4.80;0.80;;;9.10;38.60;;;;;;5052526;28;46580;-78
2024/01/24 01:07:31;;;;;;;1.83;0.90;;;9.20;38.70;;;;;;5064869;28;46913;-78
2024/01/24 01:09:56;;;;;;;2.33;0.70;;;9.30;38.80;;;;;;5066347;28;46433;-78
2024/01/24 01:12:22;;;;;;;1.23;0.60;;;9.30;38.10;;;;;;5067677;28;46426;-77
2024/01/24 01:14:47;;;;;;;1.40;0.77;;;9.30;38.20;;;;;;5055796;28;46563;-78
2024/01/24 01:17:13;;;;;;;2.80;0.80;;;9.40;38.20;;;;;;5059339;27;46484;-78
2024/01/24 01:19:38;;;;;;;1.53;0.67;;;9.40;37.70;;;;;;5072437;27;46528;-78
2024/01/24 01:22:04;;;;;;;4.20;1.00;;;9.50;37.30;;;;;;5069953;27;46459;-78
2024/01/24 01:24:30;;;;;;;3.40;0.77;;;9.60;37.20;;;;;;5049669;28;46560;-81
2024/01/24 01:26:55;;;;;;;2.60;0.70;;;9.60;37.10;;;;;;5070044;28;46394;-77
2024/01/24 01:29:21;;;;;;;1.60;0.90;;;9.60;37.00;;;;;;5068465;27;46068;-77
2024/01/24 01:31:46;;;;;;;1.73;0.80;;;9.50;37.00;;;;;;5069638;28;46779;-77
2024/01/24 01:34:12;;;;;;;1.40;0.70;;;9.60;37.10;;;;;;5065572;28;46461;-78
2024/01/24 01:36:37;;;;;;;2.73;0.90;;;9.60;36.90;;;;;;5069005;27;46550;-78
2024/01/24 01:39:04;;;;;;;6.00;0.83;;;9.50;36.80;;;;;;5065051;27;47028;-78
2024/01/24 01:41:30;;;;;;;1.50;0.70;;;9.60;36.80;;;;;;5069476;28;46780;-77
2024/01/24 01:43:55;;;;;;;3.57;0.77;;;9.60;36.40;;;;;;5066580;28;47017;-78
2024/01/24 01:46:22;;;;;;;5.93;0.90;;;9.60;36.00;;;;;;5066558;28;46819;-79
2024/01/24 01:48:50;;;;;;;2.23;0.80;;;9.70;35.70;;;;;;5070039;28;46607;-78
2024/01/24 01:51:17;;;;;;;1.70;0.80;;;9.70;35.20;;;;;;5069652;27;46754;-78
2024/01/24 01:53:44;;;;;;;5.10;0.80;;;9.70;35.20;;;;;;5054641;28;46484;-78
2024/01/24 01:56:11;;;;;;;2.03;0.70;;;9.80;35.00;;;;;;5071677;27;46407;-80
2024/01/24 01:58:38;;;;;;;2.77;0.90;;;9.70;34.90;;;;;;5067347;28;46808;-78
2024/01/24 02:01:06;;;;;;;1.90;0.87;;;9.70;35.10;;;;;;5070981;27;47038;-78
2024/01/24 02:03:32;;;;;;;2.77;0.87;;;9.80;35.20;;;;;;5073030;28;46470;-78
2024/01/24 02:05:57;;;;;;;2.33;0.80;;;9.70;35.20;;;;;;5068908;28;46427;-78
2024/01/24 02:08:23;;;;;;;2.17;0.70;;;9.70;35.10;;;;;;5072218;28;47132;-78
2024/01/24 02:10:49;;;;;;;1.90;0.80;;;9.70;35.10;;;;;;5071970;28;47190;-77
2024/01/24 02:13:14;;;;;;;3.50;0.83;;;9.70;35.10;;;;;;5069132;28;46253;-76
2024/01/24 02:15:40;;;;;;;3.30;0.83;;;9.70;35.20;;;;;;5071142;27;45810;-78
2024/01/24 02:18:06;;;;;;;2.10;0.70;;;9.70;35.40;;;;;;5048530;28;46460;-77
2024/01/24 02:20:32;;;;;;;1.87;0.73;;;9.70;35.30;;;;;;5070939;28;46535;-77
2024/01/24 02:22:58;;;;;;;2.47;0.80;;;9.60;35.20;;;;;;5072658;28;45973;-76
2024/01/24 02:25:24;;;;;;;1.80;0.70;;;9.60;35.30;;;;;;5073079;28;46636;-78
2024/01/24 02:27:49;;;;;;;1.60;0.80;;;9.60;35.50;;;;;;5069075;27;46222;-78
2024/01/24 02:30:15;;;;;;;2.33;0.80;;;9.60;35.40;;;;;;5072386;28;46336;-77
2024/01/24 02:32:41;;;;;;;3.27;0.80;;;9.60;35.60;;;;;;5054284;28;46355;-78
2024/01/24 02:35:07;;;;;;;1.97;0.80;;;9.60;35.70;;;;;;5070353;27;46750;-78
2024/01/24 02:37:32;;;;;;;2.60;0.80;;;9.50;35.60;;;;;;5059078;28;46431;-79
2024/01/24 02:39:58;;;;;;;3.30;1.00;;;9.50;35.80;;;;;;5073357;27;48449;-78
2024/01/24 02:42:24;;;;;;;1.93;0.70;;;9.50;35.80;;;;;;5079147;27;46124;-79
2024/01/24 02:44:49;;;;;;;4.40;0.83;;;9.50;35.80;;;;;;5080017;27;46384;-78
2024/01/24 02:47:19;;;;;;;1.73;0.70;;;9.60;35.90;;;;;;5070786;27;46461;-79
2024/01/24 02:49:44;;;;;;;1.43;0.80;;;9.60;36.00;;;;;;5071241;28;46428;-78
2024/01/24 02:52:10;;;;;;;2.10;0.80;;;9.60;35.90;;;;;;5071533;27;47052;-78
2024/01/24 02:54:37;;;;;;;2.07;0.80;;;9.80;36.00;;;;;;5072794;27;46547;-79
2024/01/24 02:57:03;;;;;;;3.17;0.80;;;9.70;35.70;;;;;;5053077;28;46445;-80
2024/01/24 02:59:28;;;;;;;1.90;0.80;;;9.80;35.40;;;;;;5054367;28;48690;-79
2024/01/24 03:01:54;;;;;;;2.53;0.80;;;10.00;34.20;;;;;;5069960;27;50440;-78
2024/01/24 03:04:20;;;;;;;4.27;1.00;;;10.10;33.90;;;;;;5072092;27;46220;-79
2024/01/24 03:06:45;;;;;;;2.73;1.50;;;10.30;33.70;;;;;;5061610;28;46535;-82
2024/01/24 03:09:11;;;;;;;2.13;0.80;;;10.40;33.60;;;;;;5060500;28;48489;-81
2024/01/24 03:11:37;;;;;;;1.83;0.80;;;10.40;33.40;;;;;;5071138;28;46560;-78
2024/01/24 03:14:03;;;;;;;2.67;0.80;;;10.50;33.40;;;;;;5068389;28;46879;-79
2024/01/24 03:16:29;;;;;;;1.50;0.80;;;10.60;33.40;;;;;;5071702;28;46688;-80
2024/01/24 03:18:54;;;;;;;1.93;0.80;;;10.60;33.20;;;;;;5073456;27;46778;-79
2024/01/24 03:21:20;;;;;;;3.53;1.20;;;10.60;33.20;;;;;;5052168;28;46721;-78
2024/01/24 03:23:46;;;;;;;3.83;1.07;;;10.60;33.40;;;;;;5072431;28;46259;-77
2024/01/24 03:26:14;;;;;;;2.20;0.70;;;10.50;33.70;;;;;;5068033;28;46624;-78
2024/01/24 03:28:39;;;;;;;2.90;0.90;;;10.40;33.90;;;;;;5053359;28;48158;-78
2024/01/24 03:31:05;;;;;;;3.00;0.80;;;10.30;35.30;;;;;;5069841;28;46922;-78
2024/01/24 03:33:30;;;;;;;3.23;0.90;;;10.30;34.10;;;;;;5069965;27;46429;-77
2024/01/24 03:35:56;;;;;;;3.00;0.90;;;10.30;34.20;;;;;;5068808;27;46725;-77
2024/01/24 03:38:22;;;;;;;2.23;0.87;;;10.40;34.10;;;;;;5070284;28;48346;-77
2024/01/24 03:40:48;;;;;;;2.00;0.70;;;10.40;34.10;;;;;;5070338;27;46478;-78
2024/01/24 03:43:13;;;;;;;1.90;0.80;;;10.50;34.10;;;;;;5070135;28;46228;-80
2024/01/24 03:45:39;;;;;;;2.73;0.90;;;10.60;33.90;;;;;;5072982;28;46426;-79
2024/01/24 03:48:09;;;;;;;1.70;0.70;;;10.70;33.80;;;;;;5070414;27;47032;-78
2024/01/24 03:50:34;;;;;;;9.70;1.07;;;10.80;33.80;;;;;;5058595;28;45890;-81
2024/01/24 03:53:03;;;;;;;2.53;0.80;;;10.80;33.60;;;;;;5074615;28;46419;-82
2024/01/24 03:55:29;;;;;;;1.67;0.70;;;10.80;33.50;;;;;;5069505;27;46488;-79
2024/01/24 03:57:56;;;;;;;2.40;0.80;;;10.90;33.60;;;;;;5069679;27;46982;-79
2024/01/24 04:00:23;;;;;;;1.60;0.80;;;11.00;33.80;;;;;;5070758;27;46931;-78
2024/01/24 04:02:48;;;;;;;1.90;0.70;;;10.90;35.00;;;;;;5072481;28;46611;-78
2024/01/24 04:05:14;;;;;;;3.30;0.60;;;10.90;33.90;;;;;;5070912;28;46405;-79
2024/01/24 04:07:40;;;;;;;2.37;0.80;;;10.90;34.00;;;;;;5071022;28;47358;-79
2024/01/24 04:10:06;;;;;;;2.03;0.87;;;10.90;34.20;;;;;;5070616;27;46473;-79
2024/01/24 04:12:32;;;;;;;1.97;0.90;;;10.80;34.40;;;;;;5067845;28;46340;-81
2024/01/24 04:14:57;;;;;;;2.93;0.80;;;10.70;34.50;;;;;;5070582;27;46562;-80
2024/01/24 04:17:23;;;;;;;2.00;0.90;;;10.70;34.60;;;;;;5067497;28;46816;-81
2024/01/24 04:19:48;;;;;;;2.40;1.30;;;10.60;34.70;;;;;;5050313;28;46434;-79
2024/01/24 04:22:15;;;;;;;1.97;0.80;;;10.60;34.80;;;;;;5067720;27;46782;-78
2024/01/24 04:24:41;;;;;;;5.00;1.73;;;10.60;35.00;;;;;;5070404;27;46941;-80
2024/01/24 04:27:07;;;;;;;2.80;0.93;;;10.70;34.90;;;;;;5067861;27;46485;-79
2024/01/24 04:29:32;;;;;;;1.67;0.80;;;10.60;34.90;;;;;;5050709;28;46681;-79
2024/01/24 04:31:58;;;;;;;3.40;0.90;;;10.60;35.00;;;;;;5069229;28;46431;-79
2024/01/24 04:34:23;;;;;;;2.00;0.80;;;10.60;35.00;;;;;;5068910;28;46490;-80
2024/01/24 04:36:49;;;;;;;1.83;1.00;;;10.50;35.00;;;;;;5060860;28;48025;-80
2024/01/24 04:39:15;;;;;;;1.73;0.77;;;10.60;35.10;;;;;;5068524;28;46577;-80
2024/01/24 04:41:41;;;;;;;3.67;0.90;;;10.50;35.20;;;;;;5069985;28;46534;-79
2024/01/24 04:44:06;;;;;;;2.87;0.90;;;10.50;35.20;;;;;;5069741;27;46533;-80
2024/01/24 04:46:32;;;;;;;1.93;0.70;;;10.50;35.20;;;;;;5051162;28;48057;-79
2024/01/24 04:48:58;;;;;;;2.17;0.80;;;10.50;35.30;;;;;;5070281;28;46503;-79
2024/01/24 04:51:24;;;;;;;2.10;0.80;;;10.60;35.30;;;;;;5069373;27;46442;-80
2024/01/24 04:53:50;;;;;;;6.07;0.83;;;10.60;35.40;;;;;;5072905;27;47651;-80
2024/01/24 04:56:16;;;;;;;2.13;0.87;;;10.70;35.40;;;;;;5071482;28;46627;-80
2024/01/24 04:58:41;;;;;;;2.77;0.80;;;10.60;35.40;;;;;;5071653;27;46459;-79
2024/01/24 05:01:07;;;;;;;2.43;0.80;;;10.60;35.30;;;;;;5073330;27;46423;-79
2024/01/24 05:03:32;;;;;;;1.60;0.70;;;10.70;35.50;;;;;;5071033;28;46567;-79
2024/01/24 05:05:58;;;;;;;2.20;0.87;;;10.70;35.40;;;;;;5054685;27;46961;-80
2024/01/24 05:08:24;;;;;;;2.17;0.80;;;10.70;35.40;;;;;;5073396;28;46513;-79
2024/01/24 05:10:50;;;;;;;2.57;0.77;;;10.80;35.50;;;;;;5072087;28;46573;-79
2024/01/24 05:13:16;;;;;;;1.87;0.80;;;10.80;35.50;;;;;;5072711;28;46576;-79
2024/01/24 05:15:41;;;;;;;2.07;0.70;;;10.80;35.50;;;;;;5041988;28;49251;-80
2024/01/24 05:18:07;;;;;;;1.87;1.00;;;10.90;35.60;;;;;;5071660;27;46723;-79
2024/01/24 05:20:32;;;;;;;2.57;1.27;;;10.90;35.70;;;;;;5067978;27;46700;-80
2024/01/24 05:22:58;;;;;;;5.30;1.10;;;10.90;35.70;;;;;;5054252;28;46562;-78
2024/01/24 05:25:24;;;;;;;4.30;1.00;;;10.90;35.50;;;;;;5069013;28;48066;-80
2024/01/24 05:27:50;;;;;;;6.27;0.90;;;10.90;35.60;;;;;;5052548;28;46520;-80
2024/01/24 05:30:15;;;;;;;2.10;1.00;;;11.00;35.70;;;;;;5071132;28;46558;-80
2024/01/24 05:32:41;;;;;;;1.97;0.73;;;11.00;35.80;;;;;;5061979;28;46491;-81
2024/01/24 05:35:07;;;;;;;3.50;1.00;;;11.00;35.70;;;;;;5053564;28;54639;-80
2024/01/24 05:37:32;;;;;;;1.90;0.83;;;11.00;35.80;;;;;;5073279;28;46519;-80
2024/01/24 05:39:58;;;;;;;2.93;1.20;;;11.10;35.80;;;;;;5076992;28;46870;-81
2024/01/24 05:42:23;;;;;;;2.27;0.90;;;11.10;35.90;;;;;;5077432;28;46371;-80
2024/01/24 05:44:49;;;;;;;2.07;0.87;;;11.00;35.70;;;;;;5073098;28;46455;-78
2024/01/24 05:47:15;;;;;;;2.60;1.00;;;11.10;35.80;;;;;;5068703;28;45989;-77
2024/01/24 05:49:41;;;;;;;2.97;0.90;;;11.10;35.80;;;;;;5071049;27;46823;-80
2024/01/24 05:52:06;;;;;;;1.50;0.70;;;11.10;35.80;;;;;;5071704;28;46559;-81
2024/01/24 05:54:32;;;;;;;2.53;0.93;;;11.20;35.90;;;;;;5062145;28;48871;-80
2024/01/24 05:56:58;;;;;;;2.63;1.10;;;11.20;35.90;;;;;;5060154;27;46372;-79
2024/01/24 05:59:24;;;;;;;2.97;1.00;;;11.10;35.90;;;;;;5065813;27;46503;-80
2024/01/24 06:01:50;;;;;;;5.23;1.00;;;11.10;36.00;;;;;;5064621;27;46593;-81
2024/01/24 06:04:16;;;;;;;2.07;0.93;;;11.20;36.10;;;;;;5049863;28;48896;-80
2024/01/24 06:06:41;;;;;;;2.90;1.00;;;11.20;36.10;;;;;;5067049;27;46403;-79
2024/01/24 06:09:07;;;;;;;2.20;0.90;;;11.10;36.00;;;;;;5067931;27;46526;-81
2024/01/24 06:11:33;;;;;;;4.80;1.20;;;11.20;36.10;;;;;;5066637;27;46753;-81
2024/01/24 06:13:59;;;;;;;2.30;1.10;;;11.10;36.10;;;;;;5074245;27;47725;-79
2024/01/24 06:16:24;;;;;;;4.30;0.90;;;11.20;36.10;;;;;;5076554;27;46900;-82
2024/01/24 06:18:50;;;;;;;1.80;0.80;;;11.20;36.20;;;;;;5075750;27;46411;-78
2024/01/24 06:21:15;;;;;;;2.00;0.90;;;11.20;36.10;;;;;;5054250;28;47430;-80
2024/01/24 06:23:41;;;;;;;2.57;1.00;;;11.40;36.20;;;;;;5069241;27;46673;-79
2024/01/24 06:26:06;;;;;;;2.47;1.00;;;11.30;36.10;;;;;;5068424;27;46802;-81
2024/01/24 06:28:32;;;;;;;2.90;0.90;;;11.20;36.10;;;;;;5066078;27;46538;-80
2024/01/24 06:30:58;;;;;;;3.53;1.17;;;11.40;36.30;;;;;;5066342;27;47615;-81
2024/01/24 06:33:24;;;;;;;6.60;1.07;;;11.30;36.20;;;;;;5074174;27;46597;-79
2024/01/24 06:35:49;;;;;;;1.90;0.67;;;11.30;36.40;;;;;;5069186;27;46878;-81
2024/01/24 06:38:15;;;;;;;3.90;1.07;;;11.30;36.20;;;;;;5067627;27;46614;-81
2024/01/24 06:40:41;;;;;;;2.33;0.90;;;11.30;36.20;;;;;;5063303;27;46749;-80
2024/01/24 06:43:06;;;;;;;2.60;1.00;;;11.30;36.30;;;;;;5066681;27;46177;-82
2024/01/24 06:45:32;;;;;;;2.93;1.20;;;11.30;36.30;;;;;;5051057;27;46636;-80
2024/01/24 06:47:58;;;;;;;4.13;1.47;;;11.30;36.30;;;;;;5068801;28;46489;-80
2024/01/24 06:50:24;;;;;;;2.67;1.40;;;11.30;36.40;;;;;;5070890;28;46561;-83
2024/01/24 06:52:50;;;;;;;4.90;0.90;;;11.30;36.40;;;;;;5069235;28;46665;-82
2024/01/24 06:55:17;;;;;;;1.80;0.83;;;11.30;36.60;;;;;;5054422;28;46644;-81
2024/01/24 06:57:42;;;;;;;2.67;1.20;;;11.30;36.50;;;;;;5067076;27;46498;-82
2024/01/24 07:00:09;;;;;;;2.30;1.00;;;11.30;36.60;;;;;;5069869;27;48045;-83
2024/01/24 07:02:36;;;;;;;2.00;0.77;;;11.40;36.50;;;;;;5067464;28;47122;-81
2024/01/24 07:05:05;;;;;;;2.33;0.97;;;11.40;36.60;;;;;;5067645;28;46439;-80
2024/01/24 07:07:31;;;;;;;3.20;0.93;;;11.60;36.60;;;;;;5068691;28;46489;-82
2024/01/24 07:09:57;;;;;;;3.40;1.03;;;11.40;36.40;;;;;;5070896;28;46077;-82
2024/01/24 07:12:22;;;;;;;1.90;0.80;;;11.50;36.50;;;;;;5065820;27;46498;-81
2024/01/24 07:14:48;;;;;;;2.20;0.90;;;11.40;36.40;;;;;;5051282;28;46495;-82
2024/01/24 07:17:14;;;;;;;1.77;0.90;;;11.50;36.60;;;;;;5070654;28;46508;-82
2024/01/24 07:19:40;;;;;;;3.17;1.30;;;11.40;36.60;;;;;;5068491;27;46320;-80
2024/01/24 07:22:06;;;;;;;5.93;1.13;;;11.40;36.60;;;;;;5070460;28;47821;-83
2024/01/24 07:24:32;;;;;;;2.60;1.10;;;11.40;36.60;;;;;;5068806;28;46432;-84
2024/01/24 07:26:57;;;;;;;2.30;1.03;;;11.40;36.70;;;;;;5069853;28;48097;-84
2024/01/24 07:29:23;;;;;;;1.87;0.90;;;11.40;36.70;;;;;;5069225;28;46286;-81
2024/01/24 07:31:49;;;;;;;5.93;1.00;;;11.40;36.80;;;;;;5069796;28;46876;-83
2024/01/24 07:34:19;;;;;;;3.80;1.00;;;11.40;36.80;;;;;;5073663;27;46466;-82
2024/01/24 07:36:44;;;;;;;2.00;0.93;;;11.40;36.80;;;;;;5062924;28;46760;-82
2024/01/24 07:39:10;;;;;;;2.97;1.20;;;11.40;36.80;;;;;;5072746;28;46446;-82
2024/01/24 07:41:35;;;;;;;1.60;0.80;;;11.40;36.90;;;;;;5070956;28;49211;-81
2024/01/24 07:44:01;;;;;;;1.70;0.83;;;11.40;37.00;;;;;;5067310;27;46506;-81
2024/01/24 07:46:27;;;;;;;2.63;1.07;;;11.40;37.10;;;;;;5068442;27;47088;-82
2024/01/24 07:48:53;;;;;;;4.50;1.20;;;11.40;37.10;;;;;;5068920;28;46510;-81
2024/01/24 07:51:22;;;;;;;3.27;1.20;;;11.50;37.10;;;;;;5073454;27;46928;-82
2024/01/24 07:53:48;;;;;;;2.40;0.93;;;11.50;37.00;;;;;;5053651;27;46436;-82
2024/01/24 07:56:15;;;;;;;3.10;1.00;;;11.50;37.00;;;;;;5070681;28;46279;-82
2024/01/24 07:58:40;;;;;;;10.93;1.23;;;11.50;37.10;;;;;;5068673;27;46511;-83
2024/01/24 08:01:08;;;;;;;3.87;1.00;;;11.50;37.00;;;;;;5067908;27;46907;-81
2024/01/24 08:03:34;;;;;;;2.30;1.00;;;11.50;37.10;;;;;;5069710;27;47087;-83
2024/01/24 08:06:00;;;;;;;1.90;0.80;;;11.50;37.20;;;;;;5057937;28;46693;-82
2024/01/24 08:08:26;;;;;;;1.50;0.90;;;11.60;37.30;;;;;;5070435;27;47025;-80
2024/01/24 08:10:51;;;;;;;2.03;0.90;;;11.60;37.20;;;;;;5067862;27;47008;-84
2024/01/24 08:13:17;;;;;;;2.90;1.00;;;11.60;37.10;;;;;;5069971;28;46621;-81
2024/01/24 08:15:43;;;;;;;2.13;0.90;;;11.70;37.10;;;;;;5067876;27;46591;-81
2024/01/24 08:18:08;;;;;;;2.07;0.80;;;11.80;37.10;;;;;;5052880;28;46650;-83
2024/01/24 08:20:34;;;;;;;2.57;1.00;;;11.80;36.90;;;;;;5050156;28;47064;-82
2024/01/24 08:23:00;;;;;;;1.90;1.10;;;11.90;37.00;;;;;;5069243;28;46365;-82
2024/01/24 08:25:26;;;;;;;2.90;1.50;;;12.20;37.10;;;;;;5059483;28;46419;-82
2024/01/24 08:27:53;;;;;;;4.13;1.03;;;12.10;37.00;;;;;;5072620;28;46414;-82
2024/01/24 08:30:19;;;;;;;2.50;1.07;;;12.20;37.10;;;;;;5073053;27;46418;-82
2024/01/24 08:32:44;;;;;;;2.07;1.03;;;12.30;37.10;;;;;;5073928;27;46835;-83
2024/01/24 08:35:10;;;;;;;2.37;0.80;;;12.30;37.10;;;;;;5072164;28;46524;-82
2024/01/24 08:37:35;;;;;;;2.17;0.80;;;12.40;37.20;;;;;;5056375;28;46543;-81
2024/01/24 08:40:02;;;;;;;1.90;0.90;;;12.40;37.10;;;;;;5073089;28;46501;-82
2024/01/24 08:42:27;;;;;;;1.90;0.87;;;12.50;37.30;;;;;;5073155;28;46461;-82
2024/01/24 08:44:53;;;;;;;2.40;0.83;;;12.50;37.50;;;;;;5072859;28;46404;-82
2024/01/24 08:47:18;;;;;;;3.03;1.00;;;12.50;37.50;;;;;;5072600;27;46459;-81
2024/01/24 08:49:44;;;;;;;2.63;0.93;;;12.50;37.40;;;;;;5061737;28;50043;-82
2024/01/24 08:52:09;;;;;;;2.33;1.00;;;12.50;37.60;;;;;;5071429;28;46443;-83
2024/01/24 08:54:35;;;;;;;1.83;0.90;;;12.50;37.70;;;;;;5071515;27;46424;-82
2024/01/24 08:57:00;;;;;;;2.90;0.90;;;12.60;37.80;;;;;;5074352;28;45815;-83
2024/01/24 08:59:26;;;;;;;1.53;0.80;;;12.70;37.50;;;;;;5057683;28;49215;-82
2024/01/24 09:01:55;;;;;;;4.40;1.10;;;12.70;37.30;;;;;;5073735;28;45813;-82
2024/01/24 09:04:21;;;;;;;1.77;0.80;;;12.70;37.10;;;;;;5073274;28;46577;-81
2024/01/24 09:06:46;;;;;;;2.47;0.80;;;12.70;37.20;;;;;;5053181;28;46491;-82
2024/01/24 09:09:14;;;;;;;4.23;1.10;;;12.70;37.10;;;;;;5072181;28;46513;-81
2024/01/24 09:11:40;;;;;;;3.40;0.87;;;12.80;36.90;;;;;;5066475;27;48027;-83
2024/01/24 09:14:06;;;;;;;2.23;0.80;;;12.80;36.50;;;;;;5069723;27;46592;-84
2024/01/24 09:16:32;;;;;;;2.43;0.90;;;12.80;36.40;;;;;;5063486;28;46443;-83
2024/01/24 09:18:58;;;;;;;1.80;0.87;;;12.90;36.10;;;;;;5073346;27;47549;-82
2024/01/24 09:21:23;;;;;;;3.40;1.10;;;12.90;36.00;;;;;;5070854;28;46514;-83
2024/01/24 09:23:50;;;;;;;1.97;0.80;;;12.90;36.20;;;;;;5072496;28;46502;-82
2024/01/24 09:26:16;;;;;;;3.00;0.70;;;13.00;35.70;;;;;;5072237;28;46864;-82
2024/01/24 09:28:42;;;;;;;2.20;0.87;;;13.10;35.50;;;;;;5073134;27;46549;-83
2024/01/24 09:31:07;;;;;;;2.27;0.70;;;13.10;35.00;;;;;;5073754;28;45973;-84
2024/01/24 09:33:33;;;;;;;2.47;1.00;;;13.20;34.80;;;;;;5071365;28;46794;-82
2024/01/24 09:35:59;;;;;;;2.33;0.83;;;13.30;34.10;;;;;;5071714;28;46510;-81
2024/01/24 09:38:24;;;;;;;3.40;0.90;;;13.30;34.20;;;;;;5073462;28;46570;-82
2024/01/24 09:40:52;;;;;;;2.60;0.90;;;13.50;33.90;;;;;;5070984;28;46502;-81
2024/01/24 09:43:22;;;;;;;1.90;0.90;;;13.50;33.80;;;;;;5070516;27;46210;-81
2024/01/24 09:45:49;;;;;;;2.63;1.10;;;13.50;33.30;;;;;;5072096;27;45881;-82
2024/01/24 09:48:16;;;;;;;2.30;1.07;;;13.60;33.30;;;;;;5074034;28;46389;-82
2024/01/24 09:50:43;;;;;;;2.10;0.90;;;13.60;33.30;;;;;;5070243;28;46763;-82
2024/01/24 09:53:15;;;;;;;1.77;0.80;;;13.50;33.20;;;;;;5074022;28;46714;-82
2024/01/24 09:55:42;;;;;;;6.23;0.90;;;13.50;33.30;;;;;;5072379;28;46724;-82
2024/01/24 09:58:08;;;;;;;2.23;0.87;;;13.50;33.50;;;;;;5051836;28;49178;-81
2024/01/24 10:00:33;;;;;;;2.17;0.97;;;13.50;33.30;;;;;;5067558;27;46493;-81
2024/01/24 10:02:59;;;;;;;2.40;0.97;;;13.50;33.20;;;;;;5074409;28;46513;-80
2024/01/24 10:05:25;;;;;;;2.43;1.20;;;13.60;33.30;;;;;;5072674;28;46477;-82
2024/01/24 10:07:51;;;;;;;2.97;0.90;;;13.60;33.00;;;;;;5067608;27;46867;-81
2024/01/24 10:10:17;;;;;;;4.60;0.90;;;13.60;32.70;;;;;;5070009;28;46639;-83
2024/01/24 10:12:43;;;;;;;1.73;0.90;;;13.80;32.60;;;;;;5057331;28;46563;-82
2024/01/24 10:15:10;;;;;;;3.10;1.17;;;13.70;32.30;;;;;;5071780;28;46602;-80
2024/01/24 10:17:39;;;;;;;3.67;1.00;;;13.80;32.20;;;;;;5052675;28;48093;-82
2024/01/24 10:20:07;;;;;;;2.40;1.10;;;13.80;32.20;;;;;;5055113;28;47000;-81
2024/01/24 10:22:33;;;;;;;2.60;1.40;;;13.80;32.00;;;;;;5072714;27;46444;-82
2024/01/24 10:24:59;;;;;;;2.70;1.03;;;13.80;32.00;;;;;;5070962;27;46518;-81
2024/01/24 10:27:26;;;;;;;6.00;1.00;;;13.90;31.80;;;;;;5051832;28;49521;-83
2024/01/24 10:29:51;;;;;;;2.03;0.90;;;13.90;31.50;;;;;;5074265;28;46517;-83
2024/01/24 10:32:17;;;;;;;2.57;0.90;;;14.00;31.30;;;;;;5069680;28;46641;-80
2024/01/24 10:34:43;;;;;;;4.07;0.90;;;13.80;31.20;;;;;;5070001;28;46462;-83
2024/01/24 10:37:08;;;;;;;1.73;0.70;;;13.90;31.20;;;;;;5068560;28;49005;-82
2024/01/24 10:39:36;;;;;;;2.27;1.00;;;14.00;30.80;;;;;;5072023;27;46606;-81
2024/01/24 10:42:04;;;;;;;3.10;1.10;;;14.10;30.60;;;;;;5069509;28;46253;-81
2024/01/24 10:44:35;;;;;;;2.30;0.90;;;14.20;30.10;;;;;;5070799;28;46579;-79
2024/01/24 10:47:04;;;;;;;1.80;0.80;;;14.20;29.60;;;;;;5075494;28;46316;-82
2024/01/24 10:49:31;;;;;;;2.90;0.80;;;14.30;29.70;;;;;;5071595;27;45852;-81
2024/01/24 10:51:57;;;;;;;2.87;1.10;;;14.30;29.10;;;;;;5068215;28;45955;-82
2024/01/24 10:54:23;;;;;;;2.43;0.83;;;14.40;29.20;;;;;;5070940;27;46399;-83
2024/01/24 10:56:53;;;;;;;1.80;0.80;;;14.50;29.30;;;;;;5061958;28;48191;-81
2024/01/24 10:59:19;;;;;;;2.27;1.03;;;14.40;29.20;;;;;;5069169;28;46583;-82
2024/01/24 11:01:48;;;;;;;5.53;1.10;;;14.50;29.30;;;;;;5053469;28;45827;-82
2024/01/24 11:04:19;;;;;;;2.30;1.00;;;14.30;29.10;;;;;;5070865;28;46563;-81
2024/01/24 11:06:51;;;;;;;2.47;0.90;;;14.40;29.30;;;;;;5064329;27;46733;-82
2024/01/24 11:09:26;;;;;;;2.00;0.90;;;14.40;29.20;;;;;;5070726;28;46551;-79
2024/01/24 11:11:55;;;;;;;2.13;1.03;;;14.40;29.20;;;;;;5069837;28;46729;-84
2024/01/24 11:14:34;;;;;;;2.20;0.93;;;14.40;29.20;;;;;;5068137;27;46489;-81
2024/01/24 11:17:03;;;;;;;2.10;1.00;;;14.40;29.20;;;;;;5053299;28;48384;-83
2024/01/24 11:19:30;;;;;;;2.60;0.70;;;14.30;29.10;;;;;;5072023;27;46496;-83
2024/01/24 11:22:04;;;;;;;1.97;0.80;;;14.30;29.30;;;;;;5074651;27;46754;-84
2024/01/24 11:24:46;;;;;;;2.00;0.80;;;14.10;29.00;;;;;;5072303;28;46432;-81
2024/01/24 11:27:32;;;;;;;1.70;0.77;;;14.10;29.00;;;;;;5065127;27;48899;-80
2024/01/24 11:30:22;;;;;;;5.63;0.80;;;14.00;29.90;;;;;;5070951;28;46898;-83
2024/01/24 11:32:47;;;;;;;2.10;1.00;;;14.00;29.00;;;;;;5056264;28;46399;-81
2024/01/24 11:35:32;;;;;;;3.60;0.90;;;14.00;29.00;;;;;;5070070;27;46451;-82
2024/01/24 11:38:26;;;;;;;3.60;0.93;;;14.10;29.00;;;;;;5067785;28;46642;-83
2024/01/24 11:40:57;;;;;;;2.10;0.80;;;14.10;28.90;;;;;;5069220;28;46490;-82
2024/01/24 11:43:25;;;;;;;2.37;0.80;;;14.10;28.50;;;;;;5071569;28;46770;-80
2024/01/24 11:45:56;;;;;;;1.80;0.70;;;14.00;28.90;;;;;;5049702;28;46480;-83
2024/01/24 11:48:24;;;;;;;1.83;0.70;;;14.00;28.90;;;;;;5071134;28;46499;-80
2024/01/24 11:51:04;;;;;;;1.90;0.90;;;14.10;28.60;;;;;;5068364;27;45832;-81
2024/01/24 11:53:30;;;;;;;3.20;0.80;;;14.10;28.70;;;;;;5050391;28;46530;-82
2024/01/24 11:56:04;;;;;;;3.63;0.77;;;14.00;28.90;;;;;;5058937;28;46488;-82
2024/01/24 11:58:30;;;;;;;2.90;0.80;;;14.00;28.90;;;;;;5068719;27;46728;-79
2024/01/24 12:00:59;;;;;;;1.80;0.80;;;14.20;29.10;;;;;;5056421;27;46502;-79
2024/01/24 12:03:25;;;;;;;2.13;0.80;;;14.20;29.10;;;;;;5064062;27;46914;-78
2024/01/24 12:05:51;;;;;;;1.50;0.70;;;14.20;29.00;;;;;;5067749;27;46819;-78
2024/01/24 12:08:17;;;;;;;11.93;1.20;;;14.30;28.50;;;;;;5054422;28;48145;-79
2024/01/24 12:10:43;;;;;;;2.13;0.90;;;14.30;28.70;;;;;;5068374;27;45925;-78
2024/01/24 12:13:09;;;;;;;2.30;0.93;;;14.30;28.50;;;;;;5063640;27;46642;-78
2024/01/24 12:15:35;;;;;;;1.70;0.70;;;14.30;28.50;;;;;;5054174;27;47053;-79
2024/01/24 12:18:13;;;;;;;2.30;0.90;;;14.40;28.40;;;;;;5062938;27;48098;-78
2024/01/24 12:20:44;;;;;;;3.20;0.83;;;14.30;28.90;;;;;;5065688;27;46810;-79
2024/01/24 12:23:13;;;;;;;1.90;0.70;;;14.40;29.20;;;;;;5063136;27;46501;-79
2024/01/24 12:25:39;;;;;;;1.70;0.80;;;14.20;29.10;;;;;;5066559;28;46628;-79
2024/01/24 12:28:06;;;;;;;1.90;0.80;;;14.30;29.10;;;;;;5063841;27;46431;-76
2024/01/24 12:30:34;;;;;;;1.90;0.77;;;14.30;29.10;;;;;;5064908;27;46758;-79
2024/01/24 12:33:01;;;;;;;1.80;0.70;;;14.30;29.10;;;;;;5060915;27;45971;-77
2024/01/24 12:35:32;;;;;;;2.77;0.90;;;14.40;29.20;;;;;;5067441;27;46819;-80
2024/01/24 12:38:02;;;;;;;2.20;1.03;;;14.30;29.10;;;;;;5033298;28;47223;-79
2024/01/24 12:40:30;;;;;;;2.30;0.77;;;14.30;29.10;;;;;;5054378;27;46817;-77
2024/01/24 12:42:56;;;;;;;1.90;0.80;;;14.20;29.10;;;;;;5065773;27;47105;-79
2024/01/24 12:45:27;;;;;;;3.60;0.73;;;14.30;29.10;;;;;;5048437;27;46755;-81